Time;durP1;ratioP1;P1;durP2;ratioP2;P2;SDS_P1;SDS_P2;PMS_P1;PMS_P2;Temp;Humidity;BMP_temperature;BMP_pressure;BME280_temperature;BME280_humidity;BME280_pressure;Samples;Min_cycle;Max_cycle;Signal;HPM_P1;HPM_P2
2021/12/11 00:00:16;;;;;;;10.15;2.35;;;5.90;93.20;;;;;;5023370;28;20026;-75
2021/12/11 00:02:44;;;;;;;13.88;2.95;;;6.00;93.20;;;;;;5007129;28;20041;-76
2021/12/11 00:05:13;;;;;;;10.77;2.00;;;6.00;93.20;;;;;;5014578;28;20037;-75
2021/12/11 00:07:39;;;;;;;9.30;2.85;;;6.00;93.10;;;;;;5009138;28;20045;-75
2021/12/11 00:10:24;;;;;;;9.45;2.75;;;6.00;93.00;;;;;;5007388;28;20042;-76
2021/12/11 00:12:54;;;;;;;10.23;2.80;;;6.00;93.00;;;;;;5006750;28;20386;-79
2021/12/11 00:15:37;;;;;;;12.65;2.65;;;6.00;93.00;;;;;;5015530;28;20068;-75
2021/12/11 00:18:09;;;;;;;9.73;3.08;;;6.00;93.00;;;;;;5002761;28;20038;-76
2021/12/11 00:20:39;;;;;;;13.68;3.85;;;6.00;93.10;;;;;;5002344;28;20034;-77
2021/12/11 00:23:06;;;;;;;19.60;4.97;;;6.00;93.10;;;;;;5011579;28;20444;-74
2021/12/11 00:25:41;;;;;;;18.30;4.35;;;6.00;93.00;;;;;;5007940;28;20049;-75
2021/12/11 00:28:08;;;;;;;20.52;3.90;;;6.00;92.60;;;;;;5006312;28;20050;-75
2021/12/11 00:30:43;;;;;;;20.17;3.85;;;6.00;92.30;;;;;;5012185;28;20031;-79
2021/12/11 00:33:24;;;;;;;16.20;3.97;;;6.10;91.90;;;;;;5017322;28;20050;-77
2021/12/11 00:35:53;;;;;;;21.95;5.65;;;6.10;91.30;;;;;;5007542;28;20090;-78
2021/12/11 00:38:25;;;;;;;17.48;4.15;;;6.10;90.90;;;;;;5005858;28;20040;-77
2021/12/11 00:40:53;;;;;;;21.52;5.18;;;6.10;90.70;;;;;;5005126;28;20040;-77
2021/12/11 00:43:27;;;;;;;19.98;4.10;;;6.10;90.50;;;;;;5004357;28;20406;-76
2021/12/11 00:45:56;;;;;;;16.60;5.23;;;6.10;90.20;;;;;;5007772;28;20038;-77
2021/12/11 00:48:25;;;;;;;18.67;4.68;;;6.10;90.10;;;;;;5009598;28;20038;-76
2021/12/11 00:50:56;;;;;;;23.73;5.20;;;6.10;90.20;;;;;;5009219;28;20034;-76
2021/12/11 00:53:26;;;;;;;18.45;4.10;;;6.00;90.10;;;;;;5010107;28;21549;-77
2021/12/11 00:55:55;;;;;;;20.33;4.35;;;6.00;90.00;;;;;;5009952;28;20036;-76
2021/12/11 00:58:27;;;;;;;23.13;5.60;;;6.00;90.00;;;;;;5026433;28;20927;-75
2021/12/11 01:00:58;;;;;;;22.25;5.05;;;6.00;90.00;;;;;;5005501;28;20038;-78
2021/12/11 01:03:36;;;;;;;23.77;4.63;;;5.90;90.10;;;;;;5005369;28;20276;-78
2021/12/11 01:06:07;;;;;;;17.30;4.68;;;5.90;90.20;;;;;;5022047;28;20172;-76
2021/12/11 01:08:39;;;;;;;18.80;4.68;;;5.80;90.20;;;;;;5015170;28;20037;-76
2021/12/11 01:11:14;;;;;;;17.08;3.70;;;5.90;90.20;;;;;;5005827;28;20038;-76
2021/12/11 01:13:50;;;;;;;18.67;4.70;;;5.80;90.10;;;;;;5005466;28;20098;-76
2021/12/11 01:16:17;;;;;;;23.42;4.32;;;5.80;90.30;;;;;;5008369;28;20042;-73
2021/12/11 01:18:46;;;;;;;25.20;5.82;;;5.80;90.40;;;;;;5007246;28;20037;-78
2021/12/11 01:24:15;;;;;;;19.42;4.20;;;5.80;90.40;;;;;;5011988;28;20034;-75
2021/12/11 01:26:51;;;;;;;18.95;3.83;;;5.80;90.50;;;;;;4988010;28;20058;-75
2021/12/11 01:29:20;;;;;;;17.58;4.22;;;5.80;90.50;;;;;;4991083;28;20126;-76
2021/12/11 01:31:47;;;;;;;20.48;4.45;;;5.80;90.40;;;;;;4991953;28;20098;-76
2021/12/11 01:34:13;;;;;;;18.00;4.05;;;5.80;90.30;;;;;;4987498;28;20027;-76
2021/12/11 01:36:39;;;;;;;19.67;4.20;;;5.80;90.30;;;;;;4994012;28;20072;-77
2021/12/11 01:39:11;;;;;;;16.48;4.55;;;5.80;90.30;;;;;;4991796;28;20046;-78
2021/12/11 01:41:38;;;;;;;20.42;4.22;;;5.80;90.40;;;;;;4984616;28;20043;-79
2021/12/11 01:44:10;;;;;;;20.45;4.25;;;5.70;90.40;;;;;;4997311;28;20596;-77
2021/12/11 01:46:38;;;;;;;17.00;4.85;;;5.70;90.50;;;;;;4992140;28;20034;-78
2021/12/11 01:49:08;;;;;;;15.90;4.45;;;5.70;90.40;;;;;;4997253;28;20062;-77
2021/12/11 01:51:45;;;;;;;15.98;4.25;;;5.60;90.30;;;;;;4999660;28;20109;-79
2021/12/11 01:54:17;;;;;;;21.58;5.03;;;5.70;90.30;;;;;;4991173;28;20042;-77
2021/12/11 01:56:48;;;;;;;17.90;4.68;;;5.60;90.40;;;;;;5003373;28;20034;-80
2021/12/11 01:59:19;;;;;;;17.05;4.63;;;5.60;90.40;;;;;;4999833;28;20106;-78
2021/12/11 02:01:50;;;;;;;18.48;4.20;;;5.50;90.50;;;;;;4990812;28;20170;-79
2021/12/11 02:04:19;;;;;;;17.92;4.82;;;5.40;90.50;;;;;;5001947;28;20034;-77
2021/12/11 02:06:47;;;;;;;20.20;5.50;;;5.40;90.70;;;;;;5025069;28;20049;-76
2021/12/11 02:09:28;;;;;;;15.95;4.47;;;5.40;90.70;;;;;;5008211;28;20025;-75
2021/12/11 02:12:23;;;;;;;18.52;5.07;;;5.40;90.60;;;;;;5006884;28;20092;-77
2021/12/11 02:14:52;;;;;;;22.63;4.45;;;5.30;90.50;;;;;;4987431;28;20049;-77
2021/12/11 02:17:29;;;;;;;21.67;4.72;;;5.30;90.70;;;;;;4992334;28;20042;-74
2021/12/11 02:19:57;;;;;;;12.57;3.70;;;5.20;90.80;;;;;;4987157;28;20138;-75
2021/12/11 02:22:27;;;;;;;17.65;5.10;;;5.20;90.70;;;;;;5007966;28;20030;-73
2021/12/11 02:24:57;;;;;;;20.65;4.28;;;5.10;90.90;;;;;;4983982;28;20111;-74
2021/12/11 02:27:50;;;;;;;23.75;5.40;;;5.10;90.90;;;;;;4993965;28;20057;-74
2021/12/11 02:30:22;;;;;;;22.42;4.55;;;5.10;91.00;;;;;;4981217;28;20038;-76
2021/12/11 02:32:58;;;;;;;20.10;4.97;;;5.00;91.10;;;;;;4985195;28;20081;-76
2021/12/11 02:35:33;;;;;;;24.88;5.35;;;5.00;91.30;;;;;;4983674;28;20082;-74
2021/12/11 02:38:25;;;;;;;19.13;4.80;;;5.00;91.40;;;;;;4984441;28;20050;-76
2021/12/11 02:40:51;;;;;;;19.60;5.20;;;4.90;91.50;;;;;;4993572;28;20101;-79
2021/12/11 02:43:37;;;;;;;18.98;4.93;;;4.90;91.70;;;;;;5003102;28;20039;-77
2021/12/11 02:46:19;;;;;;;19.77;4.20;;;4.90;91.70;;;;;;4989800;28;20026;-76
2021/12/11 02:48:50;;;;;;;18.58;4.25;;;5.00;91.70;;;;;;4989159;28;20027;-76
2021/12/11 02:51:33;;;;;;;21.90;5.65;;;4.90;91.80;;;;;;4994375;28;20362;-74
2021/12/11 02:54:32;;;;;;;22.90;4.65;;;4.90;91.80;;;;;;4988209;28;20545;-75
2021/12/11 02:57:05;;;;;;;19.17;4.38;;;4.90;91.70;;;;;;4985607;28;20035;-78
2021/12/11 02:59:39;;;;;;;15.88;5.30;;;4.90;91.90;;;;;;4990786;28;20039;-76
2021/12/11 03:02:11;;;;;;;17.60;4.57;;;4.90;91.90;;;;;;4985249;28;20045;-78
2021/12/11 03:04:44;;;;;;;19.52;4.30;;;4.90;91.80;;;;;;5021845;28;20057;-77
2021/12/11 03:07:14;;;;;;;16.95;5.18;;;4.90;91.80;;;;;;4991599;28;20114;-77
2021/12/11 03:09:46;;;;;;;18.55;4.82;;;4.90;91.60;;;;;;4990539;28;20022;-78
2021/12/11 03:12:16;;;;;;;19.77;5.45;;;4.90;91.70;;;;;;4986463;28;20051;-75
2021/12/11 03:14:43;;;;;;;18.98;4.90;;;4.90;91.80;;;;;;4996267;28;20059;-77
2021/12/11 03:17:09;;;;;;;24.85;5.15;;;4.80;91.80;;;;;;4992575;28;20082;-77
2021/12/11 03:19:39;;;;;;;22.05;4.50;;;4.80;91.90;;;;;;4994037;28;20027;-77
2021/12/11 03:22:09;;;;;;;20.13;4.88;;;4.80;91.90;;;;;;4994421;28;20035;-76
2021/12/11 03:24:37;;;;;;;22.35;4.40;;;4.80;92.00;;;;;;4989947;28;20050;-76
2021/12/11 03:27:03;;;;;;;20.40;4.28;;;4.70;91.90;;;;;;4988805;28;20027;-73
2021/12/11 03:29:30;;;;;;;19.30;4.88;;;4.80;92.00;;;;;;5002705;28;20042;-75
2021/12/11 03:31:56;;;;;;;17.60;5.43;;;4.80;92.10;;;;;;4990255;28;20065;-76
2021/12/11 03:34:26;;;;;;;18.98;5.35;;;4.80;92.00;;;;;;4988701;28;20046;-75
2021/12/11 03:36:52;;;;;;;15.50;4.28;;;4.80;92.00;;;;;;4996334;28;20035;-77
2021/12/11 03:39:35;;;;;;;13.75;4.50;;;4.70;92.00;;;;;;4999739;28;20031;-78
2021/12/11 03:42:09;;;;;;;18.75;4.63;;;4.70;92.00;;;;;;4994718;28;20430;-75
2021/12/11 03:44:35;;;;;;;26.67;5.72;;;4.60;92.00;;;;;;5000515;28;20030;-78
2021/12/11 03:47:10;;;;;;;19.60;5.38;;;4.60;92.10;;;;;;5003127;28;20039;-78
2021/12/11 03:49:37;;;;;;;19.15;5.35;;;4.60;92.00;;;;;;5000803;28;20045;-76
2021/12/11 03:52:05;;;;;;;20.00;4.40;;;4.60;92.00;;;;;;5000733;28;20027;-76
2021/12/11 03:54:34;;;;;;;25.10;5.60;;;4.60;92.10;;;;;;4988044;28;20031;-77
2021/12/11 03:57:01;;;;;;;17.25;5.45;;;4.60;92.10;;;;;;4993245;28;20030;-74
2021/12/11 03:59:28;;;;;;;17.77;5.05;;;4.60;92.10;;;;;;4999132;28;20038;-76
2021/12/11 04:01:58;;;;;;;17.98;5.28;;;4.50;92.20;;;;;;5025449;28;20060;-78
2021/12/11 04:04:29;;;;;;;16.45;6.00;;;4.50;92.10;;;;;;5008726;28;20061;-77
2021/12/11 04:06:57;;;;;;;17.13;4.93;;;4.50;92.30;;;;;;4997454;28;20034;-77
2021/12/11 04:09:23;;;;;;;15.55;4.90;;;4.40;92.20;;;;;;5012752;28;20357;-75
2021/12/11 04:11:51;;;;;;;17.92;4.70;;;4.40;92.20;;;;;;5013607;28;20034;-75
2021/12/11 04:14:25;;;;;;;18.05;5.18;;;4.40;92.20;;;;;;5004652;28;20632;-76
2021/12/11 04:16:52;;;;;;;20.15;5.38;;;4.40;92.20;;;;;;5009137;28;20125;-76
2021/12/11 04:19:19;;;;;;;16.30;4.90;;;4.40;92.20;;;;;;5008007;28;20042;-75
2021/12/11 04:21:46;;;;;;;17.52;5.18;;;4.40;92.20;;;;;;5008735;28;20294;-75
2021/12/11 04:24:17;;;;;;;18.38;5.30;;;4.30;92.20;;;;;;5011105;28;20042;-78
2021/12/11 04:26:45;;;;;;;19.38;5.10;;;4.30;92.20;;;;;;5010270;28;20606;-78
2021/12/11 04:29:12;;;;;;;20.40;5.85;;;4.20;92.30;;;;;;5001926;28;20034;-75
2021/12/11 04:31:42;;;;;;;14.77;4.60;;;4.20;92.20;;;;;;5021859;28;20053;-79
2021/12/11 04:34:08;;;;;;;21.10;4.82;;;4.20;92.30;;;;;;5005281;28;20041;-77
2021/12/11 04:36:39;;;;;;;19.15;5.32;;;4.20;92.40;;;;;;5016562;28;20034;-77
2021/12/11 04:39:08;;;;;;;20.13;5.18;;;4.20;92.50;;;;;;5008309;28;20041;-76
2021/12/11 04:41:45;;;;;;;21.17;5.70;;;4.10;92.50;;;;;;5011746;28;20045;-76
2021/12/11 04:44:18;;;;;;;20.30;5.68;;;4.10;92.50;;;;;;5007878;28;20034;-78
2021/12/11 04:46:44;;;;;;;20.42;5.93;;;4.10;92.70;;;;;;5016156;28;20093;-77
2021/12/11 04:49:30;;;;;;;26.80;6.88;;;4.10;92.90;;;;;;5012137;28;20026;-78
2021/12/11 04:52:08;;;;;;;26.50;5.35;;;4.10;92.90;;;;;;5021235;28;20041;-79
2021/12/11 05:02:41;;;;;;;16.10;5.25;;;4.10;93.20;;;;;;5011853;28;20038;-75
2021/12/11 05:05:22;;;;;;;21.98;6.47;;;4.10;93.20;;;;;;5006955;28;20039;-78
2021/12/11 05:08:13;;;;;;;21.48;6.05;;;4.10;93.20;;;;;;5006454;28;20038;-76
2021/12/11 05:10:51;;;;;;;19.55;6.40;;;4.10;93.30;;;;;;5009696;28;20026;-78
2021/12/11 05:13:18;;;;;;;26.45;7.05;;;4.10;93.40;;;;;;5021053;28;20057;-76
2021/12/11 05:15:46;;;;;;;19.08;5.50;;;4.00;93.40;;;;;;5007266;28;20058;-77
2021/12/11 05:18:15;;;;;;;27.05;6.25;;;4.00;93.40;;;;;;5008538;28;20026;-77
2021/12/11 05:20:45;;;;;;;18.15;6.57;;;4.00;93.40;;;;;;5011355;28;20038;-79
2021/12/11 05:23:12;;;;;;;20.45;5.85;;;4.00;93.50;;;;;;5024109;28;20038;-78
2021/12/11 05:25:38;;;;;;;18.20;5.93;;;3.90;93.40;;;;;;5007811;28;20034;-77
2021/12/11 05:28:04;;;;;;;20.73;5.28;;;3.90;93.40;;;;;;5019201;28;20107;-75
2021/12/11 05:30:39;;;;;;;16.30;5.93;;;3.90;93.40;;;;;;5012328;28;20037;-75
2021/12/11 05:33:05;;;;;;;14.10;5.20;;;3.90;93.60;;;;;;5007320;28;20045;-76
2021/12/11 05:35:35;;;;;;;17.60;5.07;;;4.00;93.70;;;;;;5007660;28;20034;-79
2021/12/11 05:38:02;;;;;;;23.15;6.70;;;4.10;93.80;;;;;;5003322;28;20030;-78
2021/12/11 05:40:30;;;;;;;24.38;6.45;;;4.10;93.90;;;;;;5009238;28;20290;-75
2021/12/11 05:42:56;;;;;;;18.40;6.25;;;4.10;93.90;;;;;;5018766;28;20034;-75
2021/12/11 05:45:23;;;;;;;20.00;5.85;;;4.20;93.90;;;;;;5008172;28;20037;-77
2021/12/11 05:47:49;;;;;;;18.38;6.55;;;4.20;93.90;;;;;;5021179;28;20030;-77
2021/12/11 05:50:19;;;;;;;18.40;6.13;;;4.30;93.80;;;;;;5016285;28;20064;-78
2021/12/11 05:52:47;;;;;;;14.13;5.68;;;4.30;93.80;;;;;;5018528;28;20045;-75
2021/12/11 05:55:16;;;;;;;18.00;5.95;;;4.40;93.80;;;;;;5008359;28;20416;-77
2021/12/11 05:57:49;;;;;;;21.35;6.85;;;4.40;93.70;;;;;;5014056;28;20034;-77
2021/12/11 06:00:19;;;;;;;16.98;5.53;;;4.40;93.60;;;;;;5015595;28;20034;-79
2021/12/11 06:02:45;;;;;;;12.52;4.53;;;4.40;93.50;;;;;;5017258;28;20038;-78
2021/12/11 06:05:10;;;;;;;24.17;5.28;;;4.30;93.40;;;;;;5001768;28;20045;-77
2021/12/11 06:07:37;;;;;;;18.20;5.40;;;4.20;93.30;;;;;;5019961;28;20041;-78
2021/12/11 06:10:11;;;;;;;17.35;5.00;;;4.10;93.30;;;;;;5018498;28;20099;-77
2021/12/11 06:12:37;;;;;;;17.33;6.67;;;4.10;93.20;;;;;;5008486;28;20075;-79
2021/12/11 06:15:04;;;;;;;19.10;8.27;;;4.00;93.30;;;;;;5008975;28;20046;-75
2021/12/11 06:17:32;;;;;;;22.63;12.73;;;4.00;93.30;;;;;;5018983;28;20029;-78
2021/12/11 06:19:58;;;;;;;27.02;12.30;;;3.90;93.20;;;;;;5007001;28;20077;-75
2021/12/11 06:22:28;;;;;;;29.75;15.73;;;3.90;93.30;;;;;;5005988;28;20040;-75
2021/12/11 06:24:56;;;;;;;29.25;17.27;;;3.80;93.20;;;;;;5006126;28;20026;-75
2021/12/11 06:27:23;;;;;;;29.40;20.48;;;3.80;93.30;;;;;;5016357;28;20027;-79
2021/12/11 06:29:50;;;;;;;28.50;19.35;;;3.70;93.30;;;;;;5016361;28;20058;-79
2021/12/11 06:32:15;;;;;;;36.72;24.63;;;3.70;93.30;;;;;;5007561;28;20046;-76
2021/12/11 06:34:41;;;;;;;35.50;21.13;;;3.70;93.30;;;;;;5017087;28;20541;-79
2021/12/11 06:37:09;;;;;;;35.50;18.90;;;3.70;93.40;;;;;;5006000;28;20023;-80
2021/12/11 06:39:36;;;;;;;28.83;15.63;;;3.70;93.50;;;;;;5009025;28;20031;-76
2021/12/11 06:42:06;;;;;;;33.42;14.18;;;3.70;93.50;;;;;;5005071;28;20054;-74
2021/12/11 06:44:32;;;;;;;29.80;12.77;;;3.70;93.50;;;;;;5006264;28;20034;-79
2021/12/11 06:47:01;;;;;;;24.88;12.52;;;3.60;93.50;;;;;;5012557;28;20034;-78
2021/12/11 06:49:29;;;;;;;18.33;9.43;;;3.70;93.50;;;;;;5009985;28;20031;-76
2021/12/11 06:51:55;;;;;;;26.63;10.15;;;3.60;93.50;;;;;;5011780;28;20045;-77
2021/12/11 06:54:21;;;;;;;19.25;8.10;;;3.60;93.50;;;;;;5015905;28;20446;-77
2021/12/11 06:56:47;;;;;;;20.45;8.18;;;3.60;93.50;;;;;;5004670;28;20354;-77
2021/12/11 06:59:14;;;;;;;24.95;7.43;;;3.60;93.50;;;;;;5006394;28;20030;-79
2021/12/11 07:01:40;;;;;;;15.32;7.22;;;3.50;93.50;;;;;;5009074;28;20042;-75
2021/12/11 07:04:07;;;;;;;20.40;6.53;;;3.60;93.50;;;;;;5012933;28;20458;-77
2021/12/11 07:06:34;;;;;;;26.90;10.38;;;3.60;93.50;;;;;;5005227;28;20034;-76
2021/12/11 07:09:00;;;;;;;25.95;13.05;;;3.60;93.70;;;;;;5022773;28;20292;-76
2021/12/11 07:11:26;;;;;;;31.00;12.88;;;3.60;93.60;;;;;;5003435;28;20045;-75
2021/12/11 07:13:53;;;;;;;29.65;14.13;;;3.60;93.60;;;;;;5010961;28;20118;-76
2021/12/11 07:16:19;;;;;;;28.90;12.57;;;3.60;93.60;;;;;;5006239;28;20341;-76
2021/12/11 07:18:45;;;;;;;22.15;11.13;;;3.60;93.50;;;;;;5009290;28;20035;-75
2021/12/11 07:21:11;;;;;;;21.02;10.68;;;3.60;93.40;;;;;;5011900;28;20045;-76
2021/12/11 07:23:42;;;;;;;24.05;10.48;;;3.50;93.20;;;;;;5009292;28;20035;-78
2021/12/11 07:26:16;;;;;;;21.40;10.82;;;3.50;93.20;;;;;;5008523;28;20038;-76
2021/12/11 07:28:54;;;;;;;25.98;11.10;;;3.50;93.10;;;;;;5016913;28;20040;-77
2021/12/11 07:31:21;;;;;;;21.98;11.32;;;3.40;93.10;;;;;;4999721;28;20034;-78
2021/12/11 07:33:50;;;;;;;25.35;11.52;;;3.40;93.10;;;;;;5001980;28;20592;-77
2021/12/11 07:36:16;;;;;;;20.58;10.57;;;3.30;93.10;;;;;;4999478;28;20038;-76
2021/12/11 07:38:42;;;;;;;25.92;11.43;;;3.20;93.20;;;;;;5002362;28;20030;-77
2021/12/11 07:41:12;;;;;;;19.25;12.55;;;3.20;93.10;;;;;;5017491;28;20037;-78
2021/12/11 07:43:39;;;;;;;21.30;11.45;;;3.20;93.20;;;;;;4998930;28;20030;-77
2021/12/11 07:46:07;;;;;;;25.13;13.02;;;3.20;93.20;;;;;;4995321;28;20026;-75
2021/12/11 07:48:34;;;;;;;25.83;13.65;;;3.10;93.20;;;;;;5000536;28;20030;-77
2021/12/11 07:51:00;;;;;;;26.63;14.93;;;3.10;93.20;;;;;;4997462;28;20125;-75
2021/12/11 07:53:26;;;;;;;29.10;14.95;;;3.10;93.30;;;;;;5014592;28;20049;-76
2021/12/11 07:55:53;;;;;;;29.02;14.98;;;3.10;93.30;;;;;;4999751;28;20035;-78
2021/12/11 07:58:20;;;;;;;36.22;15.45;;;3.10;93.30;;;;;;5003968;28;20049;-77
2021/12/11 08:00:48;;;;;;;27.80;14.60;;;3.10;93.30;;;;;;4994778;28;20103;-77
2021/12/11 08:03:14;;;;;;;29.17;16.25;;;3.10;93.30;;;;;;5003135;28;20034;-76
2021/12/11 08:05:43;;;;;;;32.63;16.52;;;3.10;93.40;;;;;;5001601;28;20030;-74
2021/12/11 08:08:10;;;;;;;37.13;16.58;;;3.10;93.40;;;;;;5008896;28;20053;-77
2021/12/11 08:10:39;;;;;;;31.65;16.48;;;3.20;93.50;;;;;;5005985;28;20030;-73
2021/12/11 08:13:06;;;;;;;33.15;16.17;;;3.20;93.40;;;;;;5023104;28;20054;-71
2021/12/11 08:15:32;;;;;;;28.10;13.93;;;3.20;93.40;;;;;;5018316;28;20143;-72
2021/12/11 08:17:58;;;;;;;26.35;14.70;;;3.20;93.30;;;;;;5004134;28;20126;-72
2021/12/11 08:20:28;;;;;;;26.30;13.50;;;3.30;93.30;;;;;;5012025;28;20094;-72
2021/12/11 08:22:55;;;;;;;29.25;14.88;;;3.20;93.20;;;;;;5008291;28;20047;-72
2021/12/11 08:25:22;;;;;;;31.40;13.80;;;3.20;93.20;;;;;;5005668;28;20041;-72
2021/12/11 08:27:49;;;;;;;25.95;13.20;;;3.20;93.30;;;;;;4997679;28;20027;-73
2021/12/11 08:30:15;;;;;;;25.45;13.00;;;3.20;93.30;;;;;;5000679;28;20030;-73
2021/12/11 08:32:42;;;;;;;23.20;12.07;;;3.30;93.40;;;;;;5002022;28;20098;-74
2021/12/11 08:35:10;;;;;;;25.25;13.50;;;3.40;93.40;;;;;;5001642;28;20057;-71
2021/12/11 08:37:37;;;;;;;21.38;12.98;;;3.40;93.50;;;;;;4998859;28;20031;-72
2021/12/11 08:40:11;;;;;;;27.35;13.05;;;3.50;93.50;;;;;;5009178;28;20040;-73
2021/12/11 08:42:37;;;;;;;27.02;12.60;;;3.60;93.50;;;;;;5004213;28;20293;-71
2021/12/11 08:45:06;;;;;;;27.00;12.02;;;3.60;93.50;;;;;;5003190;28;20119;-73
2021/12/11 08:47:39;;;;;;;24.15;12.10;;;3.70;93.40;;;;;;5000589;28;20034;-73
2021/12/11 08:50:13;;;;;;;23.17;13.13;;;3.80;93.40;;;;;;5019026;28;20109;-73
2021/12/11 08:52:42;;;;;;;28.73;13.35;;;3.90;93.40;;;;;;5000277;28;20035;-71
2021/12/11 08:55:14;;;;;;;25.55;12.55;;;4.00;93.20;;;;;;5002877;28;20046;-72
2021/12/11 08:57:41;;;;;;;26.92;12.05;;;4.10;93.10;;;;;;5021192;28;20047;-74
2021/12/11 09:00:29;;;;;;;24.48;13.48;;;4.20;93.00;;;;;;5005988;28;20031;-71
2021/12/11 09:03:00;;;;;;;24.33;13.40;;;4.30;92.80;;;;;;5022629;28;20043;-71
2021/12/11 09:05:37;;;;;;;27.83;14.10;;;4.20;92.40;;;;;;4998557;28;20035;-72
2021/12/11 09:08:15;;;;;;;26.33;14.32;;;4.30;92.40;;;;;;4999752;28;20048;-71
2021/12/11 09:10:53;;;;;;;21.65;13.38;;;4.40;92.40;;;;;;5006407;28;20098;-72
2021/12/11 09:13:30;;;;;;;24.58;13.60;;;4.60;92.40;;;;;;5014038;28;20244;-72
2021/12/11 09:16:18;;;;;;;28.02;15.80;;;4.70;92.10;;;;;;5008822;28;20037;-72
2021/12/11 09:19:01;;;;;;;30.85;15.30;;;4.80;91.90;;;;;;5002406;28;20035;-72
2021/12/11 09:21:42;;;;;;;29.48;15.20;;;4.90;91.40;;;;;;5009122;28;20088;-72
2021/12/11 09:24:23;;;;;;;22.05;12.98;;;5.10;91.20;;;;;;5003943;28;20022;-72
2021/12/11 09:26:53;;;;;;;23.55;12.55;;;5.10;91.10;;;;;;5009035;28;20050;-70
2021/12/11 09:29:30;;;;;;;27.58;13.38;;;5.20;90.50;;;;;;5018725;28;20045;-73
2021/12/11 09:32:19;;;;;;;28.55;13.05;;;5.30;90.30;;;;;;5005900;28;20046;-71
2021/12/11 09:34:56;;;;;;;25.95;12.57;;;5.40;89.80;;;;;;4998464;28;20041;-72
2021/12/11 09:37:22;;;;;;;26.38;13.02;;;5.40;89.40;;;;;;5005834;28;20070;-72
2021/12/11 09:39:54;;;;;;;24.00;12.70;;;5.50;89.30;;;;;;5006268;28;20045;-73
2021/12/11 09:42:20;;;;;;;24.27;13.23;;;5.60;89.00;;;;;;5002577;28;20121;-71
2021/12/11 09:44:54;;;;;;;25.55;12.43;;;5.50;88.90;;;;;;4999730;28;20042;-71
2021/12/11 09:47:31;;;;;;;29.58;14.05;;;5.50;88.90;;;;;;5016265;28;20042;-72
2021/12/11 09:50:03;;;;;;;23.85;13.45;;;5.50;89.00;;;;;;5014425;28;20038;-72
2021/12/11 09:52:32;;;;;;;26.40;13.57;;;5.60;89.30;;;;;;5009303;28;20058;-73
2021/12/11 09:55:04;;;;;;;27.83;13.30;;;5.60;89.00;;;;;;5001812;28;20054;-70
2021/12/11 09:57:35;;;;;;;28.48;14.20;;;5.80;89.20;;;;;;5000441;28;20038;-73
2021/12/11 10:00:09;;;;;;;22.95;13.90;;;5.90;88.80;;;;;;5009422;28;20026;-72
2021/12/11 10:02:35;;;;;;;27.67;14.77;;;6.00;88.20;;;;;;5010268;28;20030;-72
2021/12/11 10:05:36;;;;;;;31.58;14.20;;;6.10;88.40;;;;;;5005507;28;20081;-72
2021/12/11 10:08:36;;;;;;;27.33;13.35;;;6.10;87.50;;;;;;5002047;28;20562;-71
2021/12/11 10:11:08;;;;;;;25.20;14.40;;;6.10;88.10;;;;;;5003296;28;20049;-71
2021/12/11 10:13:44;;;;;;;24.88;15.35;;;6.30;88.10;;;;;;5004214;28;20082;-72
2021/12/11 10:16:12;;;;;;;31.25;15.50;;;6.30;87.80;;;;;;4998685;28;20046;-70
2021/12/11 10:18:39;;;;;;;30.52;17.17;;;6.50;87.70;;;;;;5000873;28;20041;-71
2021/12/11 10:21:20;;;;;;;25.20;15.52;;;6.60;87.20;;;;;;5006140;28;20026;-70
2021/12/11 10:23:52;;;;;;;28.83;15.25;;;6.60;86.90;;;;;;5007441;28;20034;-72
2021/12/11 10:26:20;;;;;;;36.03;19.88;;;6.60;87.30;;;;;;5009002;28;20044;-71
2021/12/11 10:28:51;;;;;;;27.40;18.33;;;6.70;86.80;;;;;;4995679;28;20046;-72
2021/12/11 10:31:25;;;;;;;27.92;18.15;;;6.70;87.20;;;;;;4995588;28;20041;-71
2021/12/11 10:33:52;;;;;;;29.60;19.38;;;6.80;87.00;;;;;;5020333;28;20040;-72
2021/12/11 10:36:22;;;;;;;29.75;20.05;;;6.80;87.00;;;;;;5007065;28;20023;-73
2021/12/11 10:38:48;;;;;;;29.75;20.77;;;6.60;87.00;;;;;;5008703;28;20038;-71
2021/12/11 10:41:15;;;;;;;29.95;17.77;;;6.60;87.30;;;;;;5010446;28;20037;-71
2021/12/11 10:44:04;;;;;;;33.55;16.33;;;6.60;87.50;;;;;;5004715;28;20045;-71
2021/12/11 10:46:46;;;;;;;28.17;14.25;;;6.60;87.60;;;;;;5004514;28;20042;-70
2021/12/11 10:49:13;;;;;;;23.40;12.40;;;6.70;88.00;;;;;;5011468;28;20093;-71
2021/12/11 10:51:44;;;;;;;21.40;12.13;;;6.80;87.60;;;;;;5010585;28;20042;-71
2021/12/11 10:54:12;;;;;;;26.35;12.88;;;7.00;87.20;;;;;;5001364;28;20042;-70
2021/12/11 10:56:39;;;;;;;24.75;11.98;;;7.10;87.10;;;;;;5010275;28;20046;-72
2021/12/11 10:59:12;;;;;;;23.08;11.90;;;7.20;87.20;;;;;;5016381;28;20058;-71
2021/12/11 11:01:53;;;;;;;19.23;12.48;;;7.30;86.70;;;;;;5009160;28;20038;-72
2021/12/11 11:04:26;;;;;;;26.10;12.88;;;7.50;86.40;;;;;;5010337;28;20034;-73
2021/12/11 11:06:53;;;;;;;25.52;14.60;;;7.50;85.80;;;;;;5005545;28;20094;-70
2021/12/11 11:09:21;;;;;;;23.42;12.90;;;7.60;85.40;;;;;;5009007;28;20036;-70
2021/12/11 11:11:51;;;;;;;21.52;11.77;;;7.50;85.40;;;;;;5005605;28;20271;-70
2021/12/11 11:14:18;;;;;;;26.75;12.85;;;7.60;85.30;;;;;;5019514;28;20038;-69
2021/12/11 11:16:51;;;;;;;19.00;11.63;;;7.60;85.60;;;;;;5003456;28;20042;-68
2021/12/11 11:19:25;;;;;;;26.05;12.35;;;7.60;84.80;;;;;;5006910;28;20648;-68
2021/12/11 11:21:59;;;;;;;23.98;11.55;;;7.70;85.20;;;;;;5005170;28;20053;-70
2021/12/11 11:24:29;;;;;;;25.73;12.07;;;7.80;85.20;;;;;;5009889;28;20034;-69
2021/12/11 11:26:57;;;;;;;21.58;10.82;;;7.60;85.10;;;;;;5019457;28;20033;-70
2021/12/11 11:29:26;;;;;;;20.30;10.40;;;7.60;85.40;;;;;;5012802;28;20022;-71
2021/12/11 11:31:57;;;;;;;21.35;10.27;;;7.70;85.00;;;;;;4996585;28;20054;-70
2021/12/11 11:34:27;;;;;;;21.00;9.52;;;7.80;85.70;;;;;;5002548;28;20035;-72
2021/12/11 11:36:57;;;;;;;25.15;11.18;;;8.00;85.20;;;;;;5000364;28;20034;-72
2021/12/11 11:39:26;;;;;;;21.52;10.75;;;8.10;84.40;;;;;;4996194;28;20035;-70
2021/12/11 11:41:58;;;;;;;20.95;9.90;;;8.00;84.10;;;;;;4993807;28;20026;-71
2021/12/11 11:44:27;;;;;;;23.88;10.18;;;7.90;84.40;;;;;;5012029;28;20092;-72
2021/12/11 11:46:57;;;;;;;21.02;9.80;;;7.90;84.80;;;;;;5007942;28;20039;-70
2021/12/11 11:49:25;;;;;;;19.40;9.05;;;7.80;84.80;;;;;;5000448;28;20085;-74
2021/12/11 11:51:57;;;;;;;34.97;12.60;;;7.80;84.50;;;;;;5001750;28;20042;-73
2021/12/11 11:54:26;;;;;;;28.88;9.93;;;7.80;84.50;;;;;;5008481;28;20187;-73
2021/12/11 11:57:05;;;;;;;21.85;11.05;;;7.60;84.80;;;;;;5008427;28;20083;-70
2021/12/11 11:59:31;;;;;;;23.83;9.15;;;7.60;85.30;;;;;;5010312;28;20061;-73
2021/12/11 12:02:01;;;;;;;20.92;9.77;;;7.60;85.90;;;;;;5010665;28;20038;-72
2021/12/11 12:04:30;;;;;;;27.17;11.45;;;7.50;86.00;;;;;;5008357;28;20041;-73
2021/12/11 12:07:00;;;;;;;23.63;10.93;;;7.60;86.00;;;;;;5018406;28;20033;-72
2021/12/11 12:09:28;;;;;;;29.90;12.95;;;7.50;86.10;;;;;;5011441;28;20030;-70
2021/12/11 12:11:58;;;;;;;25.48;12.02;;;7.50;86.00;;;;;;5021797;28;20041;-71
2021/12/11 12:14:27;;;;;;;25.40;11.80;;;7.50;86.10;;;;;;5014244;28;20061;-70
2021/12/11 12:16:53;;;;;;;29.85;12.60;;;7.60;86.10;;;;;;5014350;28;20030;-71
2021/12/11 12:19:20;;;;;;;21.67;10.65;;;7.60;85.40;;;;;;5002819;28;20045;-71
2021/12/11 12:21:50;;;;;;;24.02;10.98;;;7.70;85.50;;;;;;5003588;28;20058;-71
2021/12/11 12:24:19;;;;;;;26.02;11.70;;;7.70;85.70;;;;;;5004855;28;20061;-71
2021/12/11 12:26:46;;;;;;;28.15;12.27;;;7.80;85.70;;;;;;5024898;28;20038;-70
2021/12/11 12:29:14;;;;;;;24.65;11.35;;;7.70;85.50;;;;;;5009918;28;20070;-71
2021/12/11 12:31:45;;;;;;;23.13;10.98;;;7.70;86.00;;;;;;5007124;28;20034;-71
2021/12/11 12:34:13;;;;;;;24.27;11.55;;;7.70;85.90;;;;;;5008286;28;20042;-72
2021/12/11 12:36:39;;;;;;;23.83;10.60;;;7.60;86.20;;;;;;4996548;28;20035;-71
2021/12/11 12:39:07;;;;;;;25.45;10.98;;;7.70;86.20;;;;;;4993852;28;20508;-72
2021/12/11 12:41:45;;;;;;;26.95;11.77;;;7.70;86.30;;;;;;4997591;28;20198;-70
2021/12/11 12:44:18;;;;;;;21.52;10.15;;;7.60;86.00;;;;;;4993421;28;20033;-71
2021/12/11 12:46:55;;;;;;;23.60;9.52;;;7.60;85.90;;;;;;5010455;28;20030;-71
2021/12/11 12:49:22;;;;;;;25.88;10.05;;;7.60;85.80;;;;;;4995099;28;20094;-70
2021/12/11 12:51:49;;;;;;;24.55;10.88;;;7.70;85.60;;;;;;5003725;28;20050;-71
2021/12/11 12:54:19;;;;;;;18.42;8.20;;;7.70;85.50;;;;;;5009500;28;20030;-71
2021/12/11 12:56:52;;;;;;;26.65;10.20;;;7.70;85.20;;;;;;5006832;28;20031;-69
2021/12/11 12:59:32;;;;;;;18.08;8.98;;;7.70;85.20;;;;;;5010659;28;20045;-71
2021/12/11 13:02:10;;;;;;;26.02;9.98;;;7.70;85.40;;;;;;5004055;28;20046;-74
2021/12/11 13:04:46;;;;;;;20.83;10.30;;;7.70;85.10;;;;;;5004392;28;20537;-73
2021/12/11 13:07:13;;;;;;;18.17;10.65;;;7.70;85.40;;;;;;5008460;28;20058;-70
2021/12/11 13:09:50;;;;;;;24.52;11.05;;;7.60;85.40;;;;;;5012554;28;20305;-71
2021/12/11 13:12:22;;;;;;;23.48;11.70;;;7.70;84.80;;;;;;5006124;28;20050;-71